sensor_id;sensor_type;location;lat;lon;timestamp;pressure;altitude;pressure_sealevel;temperature;humidity
40930;BME280;26659;47.962;21.652;2022-07-23T00:00:43;100182.06;;;21.50;80.86
40930;BME280;26659;47.962;21.652;2022-07-23T00:03:08;100193.47;;;20.94;82.57
40930;BME280;26659;47.962;21.652;2022-07-23T00:05:34;100184.28;;;21.05;82.81
40930;BME280;26659;47.962;21.652;2022-07-23T00:07:59;100186.91;;;20.85;84.16
40930;BME280;26659;47.962;21.652;2022-07-23T00:10:25;100184.19;;;20.85;84.34
40930;BME280;26659;47.962;21.652;2022-07-23T00:12:50;100185.81;;;20.86;84.99
40930;BME280;26659;47.962;21.652;2022-07-23T00:15:15;100187.38;;;20.72;87.14
40930;BME280;26659;47.962;21.652;2022-07-23T00:17:41;100184.41;;;20.78;84.67
40930;BME280;26659;47.962;21.652;2022-07-23T00:20:06;100192.00;;;20.71;85.45
40930;BME280;26659;47.962;21.652;2022-07-23T00:22:32;100192.78;;;20.66;85.28
40930;BME280;26659;47.962;21.652;2022-07-23T00:24:57;100187.44;;;20.82;85.27
40930;BME280;26659;47.962;21.652;2022-07-23T00:27:23;100194.09;;;21.06;82.10
40930;BME280;26659;47.962;21.652;2022-07-23T00:29:48;100195.50;;;21.19;83.49
40930;BME280;26659;47.962;21.652;2022-07-23T00:32:13;100196.59;;;21.18;81.48
40930;BME280;26659;47.962;21.652;2022-07-23T00:34:38;100204.13;;;20.96;87.23
40930;BME280;26659;47.962;21.652;2022-07-23T00:37:04;100193.56;;;21.09;82.14
40930;BME280;26659;47.962;21.652;2022-07-23T00:39:29;100193.25;;;21.06;84.87
40930;BME280;26659;47.962;21.652;2022-07-23T00:41:55;100190.59;;;21.11;86.99
40930;BME280;26659;47.962;21.652;2022-07-23T00:44:21;100191.88;;;20.98;87.19
40930;BME280;26659;47.962;21.652;2022-07-23T00:46:48;100201.56;;;20.84;88.96
40930;BME280;26659;47.962;21.652;2022-07-23T00:49:14;100190.59;;;20.68;89.92
40930;BME280;26659;47.962;21.652;2022-07-23T00:51:39;100201.25;;;20.75;87.59
40930;BME280;26659;47.962;21.652;2022-07-23T00:54:04;100196.13;;;20.84;86.65
40930;BME280;26659;47.962;21.652;2022-07-23T00:56:30;100195.31;;;20.78;87.20
40930;BME280;26659;47.962;21.652;2022-07-23T00:58:55;100194.81;;;20.86;88.57
40930;BME280;26659;47.962;21.652;2022-07-23T01:01:21;100191.25;;;20.86;93.07
40930;BME280;26659;47.962;21.652;2022-07-23T01:03:47;100192.28;;;20.75;93.31
40930;BME280;26659;47.962;21.652;2022-07-23T01:06:12;100193.03;;;20.65;88.95
40930;BME280;26659;47.962;21.652;2022-07-23T01:08:38;100195.22;;;20.63;84.15
40930;BME280;26659;47.962;21.652;2022-07-23T01:11:03;100197.88;;;20.58;87.16
40930;BME280;26659;47.962;21.652;2022-07-23T01:13:29;100196.81;;;20.59;87.54
40930;BME280;26659;47.962;21.652;2022-07-23T01:15:54;100194.91;;;20.59;88.39
40930;BME280;26659;47.962;21.652;2022-07-23T01:18:19;100196.47;;;20.50;89.34
40930;BME280;26659;47.962;21.652;2022-07-23T01:20:45;100196.41;;;20.45;83.45
40930;BME280;26659;47.962;21.652;2022-07-23T01:23:10;100188.88;;;20.20;85.03
40930;BME280;26659;47.962;21.652;2022-07-23T01:25:35;100190.34;;;20.06;85.84
40930;BME280;26659;47.962;21.652;2022-07-23T01:28:01;100188.16;;;20.35;84.69
40930;BME280;26659;47.962;21.652;2022-07-23T01:30:26;100187.91;;;20.36;86.46
40930;BME280;26659;47.962;21.652;2022-07-23T01:32:51;100182.81;;;20.13;90.18
40930;BME280;26659;47.962;21.652;2022-07-23T01:35:17;100183.66;;;20.18;89.99
40930;BME280;26659;47.962;21.652;2022-07-23T01:37:42;100189.41;;;20.22;91.63
40930;BME280;26659;47.962;21.652;2022-07-23T01:40:07;100182.25;;;20.11;90.19
40930;BME280;26659;47.962;21.652;2022-07-23T01:42:33;100183.22;;;20.00;93.29
40930;BME280;26659;47.962;21.652;2022-07-23T01:44:58;100186.84;;;20.05;91.72
40930;BME280;26659;47.962;21.652;2022-07-23T01:47:25;100181.94;;;20.07;90.19
40930;BME280;26659;47.962;21.652;2022-07-23T01:49:50;100183.75;;;19.96;91.88
40930;BME280;26659;47.962;21.652;2022-07-23T01:52:16;100182.53;;;19.82;93.10
40930;BME280;26659;47.962;21.652;2022-07-23T01:54:41;100180.09;;;19.86;92.01
40930;BME280;26659;47.962;21.652;2022-07-23T01:57:06;100170.44;;;19.95;91.95
40930;BME280;26659;47.962;21.652;2022-07-23T01:59:32;100169.00;;;19.87;93.01
40930;BME280;26659;47.962;21.652;2022-07-23T02:01:58;100171.28;;;19.68;96.41
40930;BME280;26659;47.962;21.652;2022-07-23T02:04:24;100170.97;;;19.65;96.66
40930;BME280;26659;47.962;21.652;2022-07-23T02:06:50;100173.84;;;19.58;97.17
40930;BME280;26659;47.962;21.652;2022-07-23T02:09:16;100163.19;;;19.52;97.80
40930;BME280;26659;47.962;21.652;2022-07-23T02:11:41;100166.06;;;19.67;94.11
40930;BME280;26659;47.962;21.652;2022-07-23T02:14:06;100155.53;;;19.70;91.48
40930;BME280;26659;47.962;21.652;2022-07-23T02:16:32;100167.91;;;19.61;93.09
40930;BME280;26659;47.962;21.652;2022-07-23T02:18:57;100169.81;;;19.61;92.27
40930;BME280;26659;47.962;21.652;2022-07-23T02:21:22;100159.47;;;19.36;96.40
40930;BME280;26659;47.962;21.652;2022-07-23T02:23:48;100161.34;;;19.35;97.58
40930;BME280;26659;47.962;21.652;2022-07-23T02:26:13;100168.56;;;19.46;96.12
40930;BME280;26659;47.962;21.652;2022-07-23T02:28:38;100165.91;;;19.52;91.02
40930;BME280;26659;47.962;21.652;2022-07-23T02:31:04;100168.91;;;19.55;91.26
40930;BME280;26659;47.962;21.652;2022-07-23T02:33:29;100167.41;;;19.42;94.76
40930;BME280;26659;47.962;21.652;2022-07-23T02:35:54;100164.66;;;19.15;97.85
40930;BME280;26659;47.962;21.652;2022-07-23T02:38:20;100177.09;;;19.33;94.66
40930;BME280;26659;47.962;21.652;2022-07-23T02:40:45;100174.41;;;19.38;91.71
40930;BME280;26659;47.962;21.652;2022-07-23T02:43:10;100175.84;;;19.46;92.10
40930;BME280;26659;47.962;21.652;2022-07-23T02:45:36;100168.94;;;19.33;94.75
40930;BME280;26659;47.962;21.652;2022-07-23T02:48:01;100174.09;;;19.35;95.85
40930;BME280;26659;47.962;21.652;2022-07-23T02:50:26;100177.91;;;19.34;93.03
40930;BME280;26659;47.962;21.652;2022-07-23T02:52:52;100181.63;;;19.28;94.44
40930;BME280;26659;47.962;21.652;2022-07-23T02:55:17;100183.13;;;19.18;95.36
40930;BME280;26659;47.962;21.652;2022-07-23T02:57:42;100189.06;;;19.15;94.46
40930;BME280;26659;47.962;21.652;2022-07-23T03:00:08;100188.25;;;19.15;95.41
40930;BME280;26659;47.962;21.652;2022-07-23T03:02:33;100193.47;;;18.99;96.47
40930;BME280;26659;47.962;21.652;2022-07-23T03:05:01;100193.78;;;18.81;99.52
40930;BME280;26659;47.962;21.652;2022-07-23T03:07:27;100187.09;;;18.89;100.00
40930;BME280;26659;47.962;21.652;2022-07-23T03:09:52;100189.19;;;19.04;97.22
40930;BME280;26659;47.962;21.652;2022-07-23T03:12:18;100194.84;;;19.02;98.36
40930;BME280;26659;47.962;21.652;2022-07-23T03:14:43;100190.56;;;19.06;99.22
40930;BME280;26659;47.962;21.652;2022-07-23T03:17:09;100191.91;;;19.04;100.00
40930;BME280;26659;47.962;21.652;2022-07-23T03:19:34;100188.91;;;18.83;98.43
40930;BME280;26659;47.962;21.652;2022-07-23T03:22:00;100190.47;;;18.79;98.15
40930;BME280;26659;47.962;21.652;2022-07-23T03:24:25;100183.25;;;18.85;98.17
40930;BME280;26659;47.962;21.652;2022-07-23T03:27:10;100187.59;;;18.86;99.47
40930;BME280;26659;47.962;21.652;2022-07-23T03:29:36;100182.88;;;18.98;98.10
40930;BME280;26659;47.962;21.652;2022-07-23T03:32:02;100192.72;;;19.04;97.38
40930;BME280;26659;47.962;21.652;2022-07-23T03:34:28;100190.84;;;19.27;97.65
40930;BME280;26659;47.962;21.652;2022-07-23T03:36:53;100185.06;;;19.45;100.00
40930;BME280;26659;47.962;21.652;2022-07-23T03:39:18;100196.75;;;19.45;99.62
40930;BME280;26659;47.962;21.652;2022-07-23T03:41:43;100193.47;;;19.43;96.59
40930;BME280;26659;47.962;21.652;2022-07-23T03:44:09;100201.66;;;19.48;94.91
40930;BME280;26659;47.962;21.652;2022-07-23T03:46:34;100200.09;;;19.31;93.51
40930;BME280;26659;47.962;21.652;2022-07-23T03:48:59;100195.56;;;19.36;97.42
40930;BME280;26659;47.962;21.652;2022-07-23T03:51:25;100195.31;;;19.38;99.05
40930;BME280;26659;47.962;21.652;2022-07-23T03:53:50;100195.88;;;19.40;97.93
40930;BME280;26659;47.962;21.652;2022-07-23T03:56:15;100191.91;;;19.26;100.00
40930;BME280;26659;47.962;21.652;2022-07-23T03:58:41;100194.03;;;19.23;97.90
40930;BME280;26659;47.962;21.652;2022-07-23T04:01:06;100196.09;;;19.60;98.83
40930;BME280;26659;47.962;21.652;2022-07-23T04:03:31;100188.06;;;19.65;99.25
40930;BME280;26659;47.962;21.652;2022-07-23T04:05:56;100191.09;;;19.69;96.00
40930;BME280;26659;47.962;21.652;2022-07-23T04:08:22;100190.13;;;19.58;96.72
40930;BME280;26659;47.962;21.652;2022-07-23T04:10:47;100194.81;;;19.63;95.04
40930;BME280;26659;47.962;21.652;2022-07-23T04:13:12;100189.06;;;20.13;100.00
40930;BME280;26659;47.962;21.652;2022-07-23T04:15:38;100193.84;;;20.33;96.50
40930;BME280;26659;47.962;21.652;2022-07-23T04:18:03;100191.44;;;20.37;94.92
40930;BME280;26659;47.962;21.652;2022-07-23T04:20:28;100199.88;;;20.73;98.71
40930;BME280;26659;47.962;21.652;2022-07-23T04:22:54;100199.72;;;20.95;95.15
40930;BME280;26659;47.962;21.652;2022-07-23T04:25:19;100203.28;;;20.95;94.18
40930;BME280;26659;47.962;21.652;2022-07-23T04:27:44;100198.47;;;21.07;94.41
40930;BME280;26659;47.962;21.652;2022-07-23T04:30:10;100193.34;;;21.21;91.24
40930;BME280;26659;47.962;21.652;2022-07-23T04:32:35;100193.75;;;21.45;85.34
40930;BME280;26659;47.962;21.652;2022-07-23T04:35:00;100190.53;;;21.58;85.50
40930;BME280;26659;47.962;21.652;2022-07-23T04:37:26;100185.66;;;21.66;85.94
40930;BME280;26659;47.962;21.652;2022-07-23T04:39:51;100190.31;;;21.85;84.08
40930;BME280;26659;47.962;21.652;2022-07-23T04:42:16;100192.00;;;22.12;83.89
40930;BME280;26659;47.962;21.652;2022-07-23T04:44:42;100191.72;;;22.08;86.48
40930;BME280;26659;47.962;21.652;2022-07-23T04:47:07;100192.03;;;22.22;82.84
40930;BME280;26659;47.962;21.652;2022-07-23T04:49:32;100195.56;;;22.23;81.61
40930;BME280;26659;47.962;21.652;2022-07-23T04:51:58;100192.78;;;21.87;81.81
40930;BME280;26659;47.962;21.652;2022-07-23T04:54:23;100190.91;;;22.49;81.66
40930;BME280;26659;47.962;21.652;2022-07-23T04:56:48;100190.63;;;22.50;79.09
40930;BME280;26659;47.962;21.652;2022-07-23T04:59:13;100191.16;;;22.78;78.80
40930;BME280;26659;47.962;21.652;2022-07-23T05:01:39;100185.13;;;22.76;75.88
40930;BME280;26659;47.962;21.652;2022-07-23T05:04:04;100193.78;;;23.19;75.20
40930;BME280;26659;47.962;21.652;2022-07-23T05:06:29;100200.81;;;23.40;74.12
40930;BME280;26659;47.962;21.652;2022-07-23T05:08:55;100201.38;;;23.32;73.51
40930;BME280;26659;47.962;21.652;2022-07-23T05:11:20;100198.84;;;23.51;73.33
40930;BME280;26659;47.962;21.652;2022-07-23T05:13:45;100199.03;;;23.70;72.53
40930;BME280;26659;47.962;21.652;2022-07-23T05:16:11;100194.53;;;23.94;70.30
40930;BME280;26659;47.962;21.652;2022-07-23T05:18:36;100198.13;;;24.24;71.71
40930;BME280;26659;47.962;21.652;2022-07-23T05:21:01;100198.59;;;24.65;67.12
40930;BME280;26659;47.962;21.652;2022-07-23T05:23:26;100204.22;;;24.11;66.36
40930;BME280;26659;47.962;21.652;2022-07-23T05:25:52;100213.31;;;23.51;69.87
40930;BME280;26659;47.962;21.652;2022-07-23T05:28:17;100220.25;;;23.88;66.76
40930;BME280;26659;47.962;21.652;2022-07-23T05:30:42;100222.72;;;24.63;63.74
40930;BME280;26659;47.962;21.652;2022-07-23T05:33:08;100226.66;;;24.47;65.38
40930;BME280;26659;47.962;21.652;2022-07-23T05:35:33;100226.41;;;24.48;67.34
40930;BME280;26659;47.962;21.652;2022-07-23T05:37:59;100220.88;;;24.54;67.28
40930;BME280;26659;47.962;21.652;2022-07-23T05:40:24;100223.94;;;25.53;62.27
40930;BME280;26659;47.962;21.652;2022-07-23T05:42:49;100228.53;;;26.99;58.49
40930;BME280;26659;47.962;21.652;2022-07-23T05:45:14;100231.06;;;25.01;62.32
40930;BME280;26659;47.962;21.652;2022-07-23T05:47:43;100229.16;;;24.78;63.67
40930;BME280;26659;47.962;21.652;2022-07-23T05:50:09;100228.97;;;25.22;61.59
40930;BME280;26659;47.962;21.652;2022-07-23T05:52:34;100219.50;;;26.33;61.40
40930;BME280;26659;47.962;21.652;2022-07-23T05:55:00;100216.22;;;25.74;59.33
40930;BME280;26659;47.962;21.652;2022-07-23T05:57:25;100215.03;;;27.30;57.46
40930;BME280;26659;47.962;21.652;2022-07-23T05:59:50;100221.03;;;27.96;54.97
40930;BME280;26659;47.962;21.652;2022-07-23T06:02:16;100221.69;;;28.60;51.36
40930;BME280;26659;47.962;21.652;2022-07-23T06:04:41;100217.56;;;28.26;51.06
40930;BME280;26659;47.962;21.652;2022-07-23T06:07:07;100221.09;;;28.18;53.55
40930;BME280;26659;47.962;21.652;2022-07-23T06:09:32;100218.97;;;27.65;54.55
40930;BME280;26659;47.962;21.652;2022-07-23T06:11:57;100211.63;;;28.55;52.92
40930;BME280;26659;47.962;21.652;2022-07-23T06:14:23;100217.84;;;28.39;52.34
40930;BME280;26659;47.962;21.652;2022-07-23T06:16:48;100223.72;;;27.73;51.54
40930;BME280;26659;47.962;21.652;2022-07-23T06:19:13;100216.78;;;28.79;49.28
40930;BME280;26659;47.962;21.652;2022-07-23T06:21:39;100223.59;;;27.15;51.97
40930;BME280;26659;47.962;21.652;2022-07-23T06:24:04;100219.00;;;28.46;50.03
40930;BME280;26659;47.962;21.652;2022-07-23T06:26:30;100220.88;;;28.60;50.12
40930;BME280;26659;47.962;21.652;2022-07-23T06:28:55;100218.91;;;29.62;47.45
40930;BME280;26659;47.962;21.652;2022-07-23T06:31:20;100224.59;;;29.83;47.72
40930;BME280;26659;47.962;21.652;2022-07-23T06:33:45;100228.81;;;29.63;47.76
40930;BME280;26659;47.962;21.652;2022-07-23T06:36:11;100213.06;;;30.51;44.44
40930;BME280;26659;47.962;21.652;2022-07-23T06:38:36;100209.91;;;30.78;42.41
40930;BME280;26659;47.962;21.652;2022-07-23T06:41:01;100214.63;;;28.68;45.79
40930;BME280;26659;47.962;21.652;2022-07-23T06:43:27;100209.88;;;28.60;47.28
40930;BME280;26659;47.962;21.652;2022-07-23T06:45:52;100214.72;;;30.26;44.21
40930;BME280;26659;47.962;21.652;2022-07-23T06:48:17;100215.16;;;30.62;42.15
40930;BME280;26659;47.962;21.652;2022-07-23T06:50:42;100214.69;;;30.52;43.47
40930;BME280;26659;47.962;21.652;2022-07-23T06:53:08;100213.88;;;29.64;42.31
40930;BME280;26659;47.962;21.652;2022-07-23T06:55:33;100209.97;;;29.08;44.47
40930;BME280;26659;47.962;21.652;2022-07-23T06:58:03;100213.13;;;29.24;44.54
40930;BME280;26659;47.962;21.652;2022-07-23T07:00:28;100214.88;;;30.20;45.29
40930;BME280;26659;47.962;21.652;2022-07-23T07:02:55;100204.41;;;30.69;43.02
40930;BME280;26659;47.962;21.652;2022-07-23T07:05:20;100216.84;;;30.29;43.38
40930;BME280;26659;47.962;21.652;2022-07-23T07:07:46;100211.22;;;29.42;43.63
40930;BME280;26659;47.962;21.652;2022-07-23T07:10:11;100209.91;;;29.48;43.87
40930;BME280;26659;47.962;21.652;2022-07-23T07:12:36;100211.31;;;29.94;43.12
40930;BME280;26659;47.962;21.652;2022-07-23T07:15:02;100208.81;;;29.49;44.67
40930;BME280;26659;47.962;21.652;2022-07-23T07:17:27;100212.75;;;29.91;43.75
40930;BME280;26659;47.962;21.652;2022-07-23T07:19:52;100207.72;;;29.85;44.18
40930;BME280;26659;47.962;21.652;2022-07-23T07:22:18;100201.72;;;30.99;43.79
40930;BME280;26659;47.962;21.652;2022-07-23T07:24:43;100210.94;;;30.56;41.96
40930;BME280;26659;47.962;21.652;2022-07-23T07:27:08;100206.16;;;31.21;43.31
40930;BME280;26659;47.962;21.652;2022-07-23T07:29:34;100208.47;;;30.72;41.98
40930;BME280;26659;47.962;21.652;2022-07-23T07:31:59;100209.22;;;30.90;40.47
40930;BME280;26659;47.962;21.652;2022-07-23T07:34:24;100203.47;;;31.12;41.37
40930;BME280;26659;47.962;21.652;2022-07-23T07:36:49;100213.59;;;30.01;42.94
40930;BME280;26659;47.962;21.652;2022-07-23T07:39:15;100201.59;;;31.34;42.16
40930;BME280;26659;47.962;21.652;2022-07-23T07:41:40;100202.81;;;31.07;43.48
40930;BME280;26659;47.962;21.652;2022-07-23T07:44:05;100209.91;;;30.78;40.94
40930;BME280;26659;47.962;21.652;2022-07-23T07:46:31;100212.88;;;32.33;40.21
40930;BME280;26659;47.962;21.652;2022-07-23T07:48:56;100217.19;;;31.59;40.71
40930;BME280;26659;47.962;21.652;2022-07-23T07:51:21;100211.19;;;31.28;39.54
40930;BME280;26659;47.962;21.652;2022-07-23T07:53:46;100209.19;;;31.87;39.44
40930;BME280;26659;47.962;21.652;2022-07-23T07:56:12;100209.47;;;31.44;38.77
40930;BME280;26659;47.962;21.652;2022-07-23T07:58:37;100211.56;;;32.52;37.97
40930;BME280;26659;47.962;21.652;2022-07-23T08:01:02;100206.22;;;33.04;35.99
40930;BME280;26659;47.962;21.652;2022-07-23T08:03:28;100210.09;;;32.79;36.98
40930;BME280;26659;47.962;21.652;2022-07-23T08:05:54;100206.69;;;33.19;36.66
40930;BME280;26659;47.962;21.652;2022-07-23T08:08:19;100207.72;;;31.90;37.54
40930;BME280;26659;47.962;21.652;2022-07-23T08:10:44;100199.63;;;33.46;37.44
40930;BME280;26659;47.962;21.652;2022-07-23T08:13:12;100212.19;;;32.36;34.93
40930;BME280;26659;47.962;21.652;2022-07-23T08:15:37;100203.44;;;32.92;36.06
40930;BME280;26659;47.962;21.652;2022-07-23T08:18:03;100197.34;;;32.53;39.10
40930;BME280;26659;47.962;21.652;2022-07-23T08:20:29;100203.94;;;33.56;36.42
40930;BME280;26659;47.962;21.652;2022-07-23T08:22:58;100206.13;;;33.38;33.79
40930;BME280;26659;47.962;21.652;2022-07-23T08:25:26;100199.66;;;32.97;34.92
40930;BME280;26659;47.962;21.652;2022-07-23T08:27:51;100199.31;;;32.98;35.21
40930;BME280;26659;47.962;21.652;2022-07-23T08:30:17;100194.69;;;33.27;33.49
40930;BME280;26659;47.962;21.652;2022-07-23T08:32:59;100201.56;;;34.38;34.56
40930;BME280;26659;47.962;21.652;2022-07-23T08:37:53;100198.41;;;35.00;33.74
40930;BME280;26659;47.962;21.652;2022-07-23T08:40:19;100197.31;;;34.57;35.08
40930;BME280;26659;47.962;21.652;2022-07-23T08:42:47;100194.31;;;34.06;31.34
40930;BME280;26659;47.962;21.652;2022-07-23T08:45:12;100192.69;;;34.77;30.94
40930;BME280;26659;47.962;21.652;2022-07-23T08:47:38;100197.97;;;34.97;33.00
40930;BME280;26659;47.962;21.652;2022-07-23T08:50:04;100184.41;;;33.92;33.98
40930;BME280;26659;47.962;21.652;2022-07-23T08:52:30;100189.22;;;34.36;36.10
40930;BME280;26659;47.962;21.652;2022-07-23T08:54:55;100179.03;;;34.12;32.45
40930;BME280;26659;47.962;21.652;2022-07-23T08:57:21;100170.72;;;35.03;32.94
40930;BME280;26659;47.962;21.652;2022-07-23T08:59:47;100173.41;;;35.15;33.49
40930;BME280;26659;47.962;21.652;2022-07-23T09:02:12;100175.28;;;35.82;31.24
40930;BME280;26659;47.962;21.652;2022-07-23T09:04:37;100178.13;;;35.85;30.20
40930;BME280;26659;47.962;21.652;2022-07-23T09:07:03;100177.72;;;35.48;31.34
40930;BME280;26659;47.962;21.652;2022-07-23T09:09:28;100186.19;;;33.72;31.09
40930;BME280;26659;47.962;21.652;2022-07-23T09:12:05;100179.38;;;34.86;29.17
40930;BME280;26659;47.962;21.652;2022-07-23T09:14:41;100181.50;;;35.40;30.82
40930;BME280;26659;47.962;21.652;2022-07-23T09:19:35;100167.09;;;36.31;29.89
40930;BME280;26659;47.962;21.652;2022-07-23T09:22:15;100169.44;;;36.06;32.32
40930;BME280;26659;47.962;21.652;2022-07-23T09:25:01;100165.19;;;35.38;28.11
40930;BME280;26659;47.962;21.652;2022-07-23T09:27:26;100158.16;;;35.09;31.11
40930;BME280;26659;47.962;21.652;2022-07-23T09:30:09;100165.69;;;34.77;29.13
40930;BME280;26659;47.962;21.652;2022-07-23T09:32:35;100161.38;;;34.95;31.10
40930;BME280;26659;47.962;21.652;2022-07-23T09:35:00;100158.25;;;35.13;29.67
40930;BME280;26659;47.962;21.652;2022-07-23T09:37:25;100160.13;;;35.44;29.14
40930;BME280;26659;47.962;21.652;2022-07-23T09:39:51;100150.78;;;36.30;27.85
40930;BME280;26659;47.962;21.652;2022-07-23T09:42:23;100148.13;;;36.60;27.69
40930;BME280;26659;47.962;21.652;2022-07-23T09:44:50;100159.19;;;37.29;30.42
40930;BME280;26659;47.962;21.652;2022-07-23T09:47:16;100148.06;;;37.02;28.01
40930;BME280;26659;47.962;21.652;2022-07-23T09:50:01;100150.06;;;37.02;28.12
40930;BME280;26659;47.962;21.652;2022-07-23T09:52:33;100139.50;;;37.18;29.03
40930;BME280;26659;47.962;21.652;2022-07-23T09:54:59;100139.00;;;37.39;28.93
40930;BME280;26659;47.962;21.652;2022-07-23T09:57:25;100147.41;;;37.13;28.99
40930;BME280;26659;47.962;21.652;2022-07-23T09:59:51;100142.22;;;37.68;28.91
40930;BME280;26659;47.962;21.652;2022-07-23T10:02:16;100141.56;;;37.48;26.71
40930;BME280;26659;47.962;21.652;2022-07-23T10:04:42;100147.28;;;37.32;27.05
40930;BME280;26659;47.962;21.652;2022-07-23T10:07:09;100141.94;;;37.80;25.97
40930;BME280;26659;47.962;21.652;2022-07-23T10:09:36;100133.97;;;37.78;26.52
40930;BME280;26659;47.962;21.652;2022-07-23T10:12:02;100131.44;;;37.66;27.40
40930;BME280;26659;47.962;21.652;2022-07-23T10:14:38;100133.88;;;37.15;26.99
40930;BME280;26659;47.962;21.652;2022-07-23T10:17:03;100135.47;;;37.72;26.99
40930;BME280;26659;47.962;21.652;2022-07-23T10:19:29;100126.13;;;37.57;25.83
40930;BME280;26659;47.962;21.652;2022-07-23T10:21:59;100127.59;;;36.03;27.10
40930;BME280;26659;47.962;21.652;2022-07-23T10:26:58;100131.91;;;37.15;27.97
40930;BME280;26659;47.962;21.652;2022-07-23T10:29:42;100120.66;;;37.38;29.25
40930;BME280;26659;47.962;21.652;2022-07-23T10:32:17;100118.91;;;37.00;25.55
40930;BME280;26659;47.962;21.652;2022-07-23T10:34:55;100114.41;;;36.46;26.54
40930;BME280;26659;47.962;21.652;2022-07-23T10:37:36;100103.41;;;36.76;27.60
40930;BME280;26659;47.962;21.652;2022-07-23T10:40:17;100101.53;;;37.40;25.98
40930;BME280;26659;47.962;21.652;2022-07-23T10:42:43;100111.19;;;37.76;29.21
40930;BME280;26659;47.962;21.652;2022-07-23T10:50:38;100105.94;;;37.11;26.94
40930;BME280;26659;47.962;21.652;2022-07-23T10:53:14;100104.44;;;37.77;26.56
40930;BME280;26659;47.962;21.652;2022-07-23T10:58:06;100105.84;;;36.54;27.81
40930;BME280;26659;47.962;21.652;2022-07-23T11:00:33;100101.25;;;37.45;27.63
40930;BME280;26659;47.962;21.652;2022-07-23T11:02:59;100101.47;;;37.63;26.65
40930;BME280;26659;47.962;21.652;2022-07-23T11:05:26;100099.28;;;37.83;26.29
40930;BME280;26659;47.962;21.652;2022-07-23T11:10:32;100092.06;;;37.78;26.55
40930;BME280;26659;47.962;21.652;2022-07-23T11:34:35;100060.53;;;37.78;27.49
40930;BME280;26659;47.962;21.652;2022-07-23T11:37:01;100053.75;;;37.12;28.32
40930;BME280;26659;47.962;21.652;2022-07-23T11:39:27;100049.09;;;37.53;26.84
40930;BME280;26659;47.962;21.652;2022-07-23T11:41:53;100048.94;;;37.76;28.16
40930;BME280;26659;47.962;21.652;2022-07-23T11:44:28;100043.34;;;37.76;28.10
40930;BME280;26659;47.962;21.652;2022-07-23T11:46:57;100040.31;;;37.54;27.61
40930;BME280;26659;47.962;21.652;2022-07-23T11:49:23;100043.72;;;37.71;25.83
40930;BME280;26659;47.962;21.652;2022-07-23T11:52:08;100044.84;;;36.76;26.30
40930;BME280;26659;47.962;21.652;2022-07-23T11:54:35;100041.75;;;37.41;28.32
40930;BME280;26659;47.962;21.652;2022-07-23T11:57:01;100039.13;;;37.52;27.35
40930;BME280;26659;47.962;21.652;2022-07-23T11:59:28;100042.47;;;37.68;24.75
40930;BME280;26659;47.962;21.652;2022-07-23T12:02:04;100031.63;;;37.97;25.84
40930;BME280;26659;47.962;21.652;2022-07-23T12:04:37;100034.22;;;37.79;26.26
40930;BME280;26659;47.962;21.652;2022-07-23T12:07:02;100031.75;;;37.40;23.92
40930;BME280;26659;47.962;21.652;2022-07-23T12:09:28;100038.69;;;37.50;23.85
40930;BME280;26659;47.962;21.652;2022-07-23T12:12:00;100030.59;;;37.11;26.29
40930;BME280;26659;47.962;21.652;2022-07-23T12:14:25;100031.88;;;37.85;24.79
40930;BME280;26659;47.962;21.652;2022-07-23T12:17:06;100019.41;;;37.75;23.84
40930;BME280;26659;47.962;21.652;2022-07-23T12:19:32;100018.66;;;37.78;23.21
40930;BME280;26659;47.962;21.652;2022-07-23T12:21:58;100017.50;;;37.82;24.69
40930;BME280;26659;47.962;21.652;2022-07-23T12:24:23;100014.91;;;38.00;24.88
40930;BME280;26659;47.962;21.652;2022-07-23T12:27:07;100022.25;;;38.19;24.33
40930;BME280;26659;47.962;21.652;2022-07-23T12:29:35;100007.84;;;38.14;23.04
40930;BME280;26659;47.962;21.652;2022-07-23T12:32:01;100009.81;;;37.05;22.16
40930;BME280;26659;47.962;21.652;2022-07-23T12:34:26;100006.41;;;37.90;23.41
40930;BME280;26659;47.962;21.652;2022-07-23T12:36:52;100011.22;;;37.89;22.74
40930;BME280;26659;47.962;21.652;2022-07-23T12:39:30;100005.16;;;37.87;22.06
40930;BME280;26659;47.962;21.652;2022-07-23T12:41:56;99997.94;;;37.82;23.52
40930;BME280;26659;47.962;21.652;2022-07-23T12:44:21;100003.38;;;37.68;23.05
40930;BME280;26659;47.962;21.652;2022-07-23T12:46:50;99998.31;;;37.77;23.27
40930;BME280;26659;47.962;21.652;2022-07-23T12:49:26;99996.72;;;37.43;23.10
40930;BME280;26659;47.962;21.652;2022-07-23T12:51:51;99995.50;;;37.77;22.90
40930;BME280;26659;47.962;21.652;2022-07-23T12:54:17;99989.72;;;37.97;23.96
40930;BME280;26659;47.962;21.652;2022-07-23T12:56:45;99984.44;;;37.88;23.26
40930;BME280;26659;47.962;21.652;2022-07-23T12:59:11;99982.28;;;38.15;22.72
40930;BME280;26659;47.962;21.652;2022-07-23T13:01:43;99973.53;;;38.17;23.14
40930;BME280;26659;47.962;21.652;2022-07-23T13:04:20;99971.34;;;38.44;22.47
40930;BME280;26659;47.962;21.652;2022-07-23T13:06:48;99960.16;;;38.44;22.57
40930;BME280;26659;47.962;21.652;2022-07-23T13:09:18;99964.97;;;38.47;22.31
40930;BME280;26659;47.962;21.652;2022-07-23T13:11:44;99963.44;;;38.05;24.85
40930;BME280;26659;47.962;21.652;2022-07-23T13:14:10;99955.44;;;38.00;23.14
40930;BME280;26659;47.962;21.652;2022-07-23T13:16:36;99951.97;;;38.17;22.48